Time;durP1;ratioP1;P1;durP2;ratioP2;P2;SDS_P1;SDS_P2;PMS_P1;PMS_P2;Temp;Humidity;BMP_temperature;BMP_pressure;BME280_temperature;BME280_humidity;BME280_pressure;Samples;Min_cycle;Max_cycle;Signal;HPM_P1;HPM_P2
2022/01/06 00:02:29;0.00;0.00;0.62;0.00;0.00;0.62;2.07;1.10;;;21.40;28.60;;;;;;2241475;62;20483;-63
2022/01/06 00:05:14;0.00;0.00;0.62;0.00;0.00;0.62;2.40;1.20;;;21.40;28.60;;;;;;2241783;62;20366;-64
2022/01/06 00:07:58;0.00;0.00;0.62;0.00;0.00;0.62;3.40;1.73;;;21.40;28.60;;;;;;2241972;62;20706;-62
2022/01/06 00:10:46;0.00;0.00;0.62;0.00;0.00;0.62;2.37;1.20;;;21.40;28.60;;;;;;2241108;61;20402;-63
2022/01/06 00:13:46;0.00;0.00;0.62;0.00;0.00;0.62;3.23;1.17;;;21.40;28.50;;;;;;2241780;62;20362;-62
2022/01/06 00:16:58;0.00;0.00;0.62;0.00;0.00;0.62;2.27;1.10;;;21.40;28.50;;;;;;2241536;62;20366;-62
2022/01/06 00:25:50;0.00;0.00;0.62;0.00;0.00;0.62;2.60;1.20;;;21.20;27.80;;;;;;2241409;62;20589;-62
2022/01/06 00:28:35;0.00;0.00;0.62;0.00;0.00;0.62;2.83;1.20;;;21.20;27.40;;;;;;2241633;62;20843;-63
2022/01/06 00:31:20;0.00;0.00;0.62;0.00;0.00;0.62;2.13;1.10;;;21.20;27.40;;;;;;2240748;62;20422;-63
2022/01/06 00:34:10;0.00;0.00;0.62;0.00;0.00;0.62;4.93;1.90;;;21.10;27.40;;;;;;2241382;62;20411;-63
2022/01/06 00:36:54;0.00;0.00;0.62;0.00;0.00;0.62;3.57;1.60;;;21.00;27.30;;;;;;2241992;62;20491;-62
2022/01/06 00:39:39;0.00;0.00;0.62;0.00;0.00;0.62;3.47;1.37;;;21.00;27.30;;;;;;2241012;61;20451;-62
2022/01/06 00:42:23;0.00;0.00;0.62;0.00;0.00;0.62;2.80;1.00;;;20.90;27.20;;;;;;2241659;62;20451;-62
2022/01/06 00:45:09;0.00;0.00;0.62;0.00;0.00;0.62;3.17;1.40;;;20.90;27.20;;;;;;2241962;62;20365;-62
2022/01/06 00:47:54;0.00;0.00;0.62;0.00;0.00;0.62;3.63;1.40;;;20.90;27.20;;;;;;2241040;62;20705;-62
2022/01/06 00:50:42;0.00;0.00;0.62;0.00;0.00;0.62;2.30;1.20;;;20.80;27.20;;;;;;2241197;61;20462;-62
2022/01/06 00:53:26;0.00;0.00;0.62;0.00;0.00;0.62;3.00;1.33;;;20.80;27.20;;;;;;2241549;62;20738;-62
2022/01/06 00:56:11;0.00;0.00;0.62;0.00;0.00;0.62;4.07;1.60;;;20.80;27.20;;;;;;2241227;62;20417;-62
2022/01/06 00:58:55;0.00;0.00;0.62;0.00;0.00;0.62;3.43;1.40;;;20.80;27.30;;;;;;2241748;62;20415;-62
2022/01/06 01:01:40;0.00;0.00;0.62;0.00;0.00;0.62;2.00;1.10;;;20.80;27.40;;;;;;2241326;62;20406;-62
2022/01/06 01:04:24;0.00;0.00;0.62;0.00;0.00;0.62;2.33;1.20;;;20.70;27.50;;;;;;2241542;62;20358;-62
2022/01/06 01:07:10;0.00;0.00;0.62;0.00;0.00;0.62;2.70;1.10;;;20.80;27.60;;;;;;2241890;62;20406;-61
2022/01/06 01:09:55;0.00;0.00;0.62;0.00;0.00;0.62;2.23;1.43;;;20.80;27.70;;;;;;2240763;61;20806;-62
2022/01/06 01:12:46;0.00;0.00;0.62;0.00;0.00;0.62;5.73;1.70;;;20.80;27.70;;;;;;2241782;62;20430;-62
2022/01/06 01:15:34;0.00;0.00;0.62;0.00;0.00;0.62;2.43;1.07;;;20.80;27.80;;;;;;2241555;62;20625;-62
2022/01/06 01:18:20;0.00;0.00;0.62;0.00;0.00;0.62;2.17;1.07;;;20.80;27.80;;;;;;2241111;62;20434;-62
2022/01/06 01:21:05;0.00;0.00;0.62;0.00;0.00;0.62;2.07;1.20;;;20.80;27.80;;;;;;2241812;61;20587;-61
2022/01/06 01:23:51;0.00;0.00;0.62;0.00;0.00;0.62;2.30;1.17;;;20.80;27.80;;;;;;2241197;62;20382;-62
2022/01/06 01:26:35;0.00;0.00;0.62;0.00;0.00;0.62;2.13;1.10;;;20.80;27.80;;;;;;2241490;62;20367;-62
2022/01/06 01:29:20;0.00;0.00;0.62;0.00;0.00;0.62;2.90;1.13;;;20.80;27.80;;;;;;2241619;62;20411;-62
2022/01/06 01:32:05;0.00;0.00;0.62;0.00;0.00;0.62;1.50;0.90;;;20.80;27.80;;;;;;2240881;61;20374;-61
2022/01/06 01:34:59;0.00;0.00;0.62;0.00;0.00;0.62;2.73;1.10;;;20.80;27.80;;;;;;2241605;62;20626;-61
2022/01/06 01:37:43;0.00;0.00;0.62;0.00;0.00;0.62;1.37;0.80;;;20.80;27.80;;;;;;2241122;62;20588;-62
2022/01/06 01:40:29;0.00;0.00;0.62;0.00;0.00;0.62;2.50;0.90;;;20.80;27.80;;;;;;2241334;61;20438;-61
2022/01/06 01:43:14;0.00;0.00;0.62;0.00;0.00;0.62;3.00;1.47;;;20.80;27.80;;;;;;2241636;62;20714;-62
2022/01/06 01:46:08;0.00;0.00;0.62;0.00;0.00;0.62;1.83;0.90;;;20.80;27.80;;;;;;2241358;62;20451;-62
2022/01/06 01:49:12;0.00;0.00;0.62;0.00;0.00;0.62;2.00;1.20;;;20.80;27.80;;;;;;2241472;62;20383;-62
2022/01/06 01:51:57;0.00;0.00;0.62;0.00;0.00;0.62;2.13;1.50;;;20.80;27.70;;;;;;2242437;62;20365;-61
2022/01/06 01:54:42;0.00;0.00;0.62;0.00;0.00;0.62;1.73;0.90;;;20.80;27.70;;;;;;2241834;62;20442;-61
2022/01/06 01:57:28;0.00;0.00;0.62;0.00;0.00;0.62;2.23;1.00;;;20.80;27.70;;;;;;2241950;62;20371;-61
2022/01/06 02:00:15;0.00;0.00;0.62;0.00;0.00;0.62;2.23;1.20;;;20.80;27.70;;;;;;2241711;61;20413;-61
2022/01/06 02:03:00;0.00;0.00;0.62;0.00;0.00;0.62;2.30;1.20;;;20.80;27.70;;;;;;2241744;62;20425;-62
2022/01/06 02:05:44;0.00;0.00;0.62;0.00;0.00;0.62;2.63;1.30;;;20.80;27.60;;;;;;2242412;62;20591;-62
2022/01/06 02:08:30;0.00;0.00;0.62;0.00;0.00;0.62;2.00;1.00;;;20.70;27.50;;;;;;2241865;62;20410;-63
2022/01/06 02:11:15;0.00;0.00;0.62;0.00;0.00;0.62;1.93;1.00;;;20.70;27.50;;;;;;2241859;61;20394;-63
2022/01/06 02:14:05;0.00;0.00;0.62;0.00;0.00;0.62;1.97;1.00;;;20.70;27.40;;;;;;2242488;62;20367;-61
2022/01/06 02:16:53;0.00;0.00;0.62;0.00;0.00;0.62;2.27;1.67;;;20.70;27.40;;;;;;2242023;62;20367;-61
2022/01/06 02:19:38;0.00;0.00;0.62;0.00;0.00;0.62;2.03;1.27;;;20.70;27.40;;;;;;2242246;61;20386;-62
2022/01/06 02:22:25;0.00;0.00;0.62;0.00;0.00;0.62;2.20;1.10;;;20.70;27.40;;;;;;2241998;62;20370;-61
2022/01/06 02:25:13;0.00;0.00;0.62;0.00;0.00;0.62;2.23;1.20;;;20.70;27.40;;;;;;2241854;62;20422;-63
2022/01/06 02:28:03;0.00;0.00;0.62;0.00;0.00;0.62;1.90;0.90;;;20.70;27.40;;;;;;2242328;62;20363;-61
2022/01/06 02:30:50;0.00;0.00;0.62;0.00;0.00;0.62;1.70;1.00;;;20.70;27.30;;;;;;2241618;61;20451;-62
2022/01/06 02:33:36;0.00;0.00;0.62;0.00;0.00;0.62;1.83;1.00;;;20.60;27.30;;;;;;2242096;62;20363;-62
2022/01/06 02:36:20;0.00;0.00;0.62;0.00;0.00;0.62;1.80;1.10;;;20.60;27.20;;;;;;2242385;62;20369;-60
2022/01/06 02:39:11;0.00;0.00;0.62;0.00;0.00;0.62;1.70;1.00;;;20.60;27.20;;;;;;2241330;62;20359;-64
2022/01/06 02:41:56;0.00;0.00;0.62;0.00;0.00;0.62;1.97;1.10;;;20.60;27.20;;;;;;2242157;62;20582;-62
2022/01/06 02:44:41;0.00;0.00;0.62;0.00;0.00;0.62;1.80;0.80;;;20.60;27.20;;;;;;2241263;62;20367;-63
2022/01/06 02:47:25;0.00;0.00;0.62;0.00;0.00;0.62;1.73;0.93;;;20.60;27.20;;;;;;2241646;62;20366;-63
2022/01/06 02:50:13;0.00;0.00;0.62;0.00;0.00;0.62;2.93;1.20;;;20.60;27.10;;;;;;2241817;61;20418;-62
2022/01/06 02:52:57;0.00;0.00;0.62;0.00;0.00;0.62;1.50;1.00;;;20.60;27.10;;;;;;2241492;62;20790;-62
2022/01/06 02:55:50;0.00;0.00;0.62;0.00;0.00;0.62;2.40;1.20;;;20.60;27.00;;;;;;2242096;62;20714;-62
2022/01/06 02:58:34;0.00;0.00;0.62;0.00;0.00;0.62;1.63;0.90;;;20.60;27.10;;;;;;2242048;62;20582;-62
2022/01/06 03:01:19;0.00;0.00;0.62;0.00;0.00;0.62;1.77;0.97;;;20.50;27.00;;;;;;2241309;62;20467;-62
2022/01/06 03:04:04;0.00;0.00;0.62;0.00;0.00;0.62;3.13;1.03;;;20.50;26.90;;;;;;2241757;62;20667;-62
2022/01/06 03:06:49;0.00;0.00;0.62;0.00;0.00;0.62;5.00;1.10;;;20.50;26.90;;;;;;2241654;62;20358;-63
2022/01/06 03:09:41;0.00;0.00;0.62;0.00;0.00;0.62;2.20;1.07;;;20.50;26.90;;;;;;2241422;61;20365;-63
2022/01/06 03:12:33;0.00;0.00;0.62;0.00;0.00;0.62;1.73;1.00;;;20.50;26.90;;;;;;2242193;62;20588;-62
2022/01/06 03:15:20;0.00;0.00;0.62;0.00;0.00;0.62;4.17;1.10;;;20.40;26.90;;;;;;2241143;62;20371;-62
2022/01/06 03:18:04;0.00;0.00;0.62;0.00;0.00;0.62;1.50;0.83;;;20.40;26.90;;;;;;2241870;62;20418;-62
2022/01/06 03:20:49;0.00;0.00;0.62;0.00;0.00;0.62;2.03;0.90;;;20.50;26.90;;;;;;2242007;61;20512;-62
2022/01/06 03:23:33;0.00;0.00;0.62;0.00;0.00;0.62;1.80;0.90;;;20.40;26.90;;;;;;2241585;62;20362;-62
2022/01/06 03:26:18;0.00;0.00;0.62;0.00;0.00;0.62;1.97;0.80;;;20.40;27.40;;;;;;2241957;62;20440;-62
2022/01/06 03:29:03;0.00;0.00;0.62;0.00;0.00;0.62;2.33;0.83;;;20.40;26.90;;;;;;2241307;62;20363;-62
2022/01/06 03:31:48;0.00;0.00;0.62;0.00;0.00;0.62;2.30;1.00;;;20.40;26.90;;;;;;2241600;61;20393;-62
2022/01/06 03:34:33;0.00;0.00;0.62;0.00;0.00;0.62;2.07;0.80;;;20.40;26.90;;;;;;2242102;62;20410;-62
2022/01/06 03:37:18;0.00;0.00;0.62;0.00;0.00;0.62;1.60;0.80;;;20.30;26.80;;;;;;2241461;62;20367;-62
2022/01/06 03:40:05;0.00;0.00;0.62;0.00;0.00;0.62;2.17;1.13;;;20.30;26.80;;;;;;2241715;61;20402;-63
2022/01/06 03:42:50;0.00;0.00;0.62;0.00;0.00;0.62;2.40;1.00;;;20.30;26.80;;;;;;2242030;62;20370;-62
2022/01/06 03:45:36;0.00;0.00;0.62;0.00;0.00;0.62;2.37;1.00;;;20.30;26.80;;;;;;2241536;62;20359;-62
2022/01/06 03:48:21;0.00;0.00;0.62;0.00;0.00;0.62;3.07;1.00;;;20.30;26.80;;;;;;2241794;62;20373;-62
2022/01/06 03:51:05;0.00;0.00;0.62;0.00;0.00;0.62;1.70;1.00;;;20.30;26.80;;;;;;2241367;61;20459;-62
2022/01/06 03:53:50;0.00;0.00;0.62;0.00;0.00;0.62;2.63;1.00;;;20.30;26.80;;;;;;2241594;62;20650;-62
2022/01/06 03:56:35;0.00;0.00;0.62;0.00;0.00;0.62;1.53;0.83;;;20.20;26.70;;;;;;2242076;62;20398;-61
2022/01/06 03:59:20;0.00;0.00;0.62;0.00;0.00;0.62;1.70;0.70;;;20.20;26.70;;;;;;2241417;62;20366;-62
2022/01/06 04:02:06;0.00;0.00;0.62;0.00;0.00;0.62;2.83;1.30;;;20.20;26.70;;;;;;2241747;62;20359;-62
2022/01/06 04:04:50;0.00;0.00;0.62;0.00;0.00;0.62;2.07;0.80;;;20.20;26.70;;;;;;2242038;62;20487;-62
2022/01/06 04:07:35;0.00;0.00;0.62;0.00;0.00;0.62;1.90;0.90;;;20.20;26.70;;;;;;2241181;62;20363;-62
2022/01/06 04:10:20;0.00;0.00;0.62;0.00;0.00;0.62;1.83;0.90;;;20.20;26.70;;;;;;2241714;61;20385;-61
2022/01/06 04:13:05;0.00;0.00;0.62;0.00;0.00;0.62;2.33;1.00;;;20.10;26.70;;;;;;2241577;61;20370;-62
2022/01/06 04:15:49;0.00;0.00;0.62;0.00;0.00;0.62;1.60;0.83;;;20.10;26.70;;;;;;2241667;62;20394;-62
2022/01/06 04:18:36;0.00;0.00;0.62;0.00;0.00;0.62;2.17;0.90;;;20.10;26.70;;;;;;2241718;62;20478;-63
2022/01/06 04:21:20;0.00;0.00;0.62;0.00;0.00;0.62;2.90;1.23;;;20.10;26.70;;;;;;2241477;62;20397;-62
2022/01/06 04:24:05;0.00;0.00;0.62;0.00;0.00;0.62;1.50;1.00;;;20.10;26.70;;;;;;2241512;62;20593;-61
2022/01/06 04:26:50;0.00;0.00;0.62;0.00;0.00;0.62;2.60;1.07;;;20.10;26.70;;;;;;2241913;62;20371;-62
2022/01/06 04:29:35;0.00;0.00;0.62;0.00;0.00;0.62;3.13;1.00;;;20.10;26.70;;;;;;2240885;61;20808;-63
2022/01/06 04:32:19;0.00;0.00;0.62;0.00;0.00;0.62;1.63;0.90;;;20.00;26.60;;;;;;2241500;62;20382;-62
2022/01/06 04:35:08;0.00;0.00;0.62;0.00;0.00;0.62;2.30;1.17;;;20.00;26.60;;;;;;2241686;62;20438;-61
2022/01/06 04:37:52;0.00;0.00;0.62;0.00;0.00;0.62;2.33;1.00;;;20.00;26.60;;;;;;2241187;62;20367;-63
2022/01/06 04:40:37;0.00;0.00;0.62;0.00;0.00;0.62;1.90;0.77;;;20.00;26.60;;;;;;2241676;61;20616;-62
2022/01/06 04:43:21;0.00;0.00;0.62;0.00;0.00;0.62;1.70;1.00;;;20.00;26.60;;;;;;2241277;62;20387;-62
2022/01/06 04:46:06;0.00;0.00;0.62;0.00;0.00;0.62;2.07;1.13;;;20.00;26.60;;;;;;2241338;62;20362;-62
2022/01/06 04:48:51;0.00;0.00;0.62;0.00;0.00;0.62;1.40;0.73;;;20.00;26.60;;;;;;2241753;62;20426;-62
2022/01/06 04:51:36;0.00;0.00;0.62;0.00;0.00;0.62;1.70;0.70;;;19.90;26.50;;;;;;2240285;62;20738;-62
2022/01/06 04:54:21;0.00;0.00;0.62;0.00;0.00;0.62;2.33;0.97;;;20.00;26.60;;;;;;2241559;62;20386;-61
2022/01/06 04:57:06;0.00;0.00;0.62;0.00;0.00;0.62;1.70;0.90;;;19.90;26.50;;;;;;2241612;62;20635;-61
2022/01/06 04:59:51;0.00;0.00;0.62;0.00;0.00;0.62;1.40;0.80;;;19.90;26.50;;;;;;2240961;61;20466;-62
2022/01/06 05:02:35;0.00;0.00;0.62;0.00;0.00;0.62;2.67;0.90;;;19.90;26.50;;;;;;2241593;62;20481;-62
2022/01/06 05:05:20;0.00;0.00;0.62;0.00;0.00;0.62;1.30;0.80;;;19.90;26.50;;;;;;2241179;62;20584;-62
2022/01/06 05:08:06;0.00;0.00;0.62;0.00;0.00;0.62;1.87;0.90;;;19.90;26.50;;;;;;2241097;62;20386;-62
2022/01/06 05:10:50;0.00;0.00;0.62;0.00;0.00;0.62;1.77;0.82;;;19.90;26.50;;;;;;2241386;61;20414;-63
2022/01/06 05:13:35;0.00;0.00;0.62;0.00;0.00;0.62;2.20;1.07;;;19.90;26.50;;;;;;2241038;62;20241;-62
2022/01/06 05:16:20;0.00;0.00;0.62;0.00;0.00;0.62;1.40;0.90;;;19.90;26.50;;;;;;2241429;62;20401;-63
2022/01/06 05:19:04;0.00;0.00;0.62;0.00;0.00;0.62;1.47;0.80;;;19.90;26.50;;;;;;2241562;62;20652;-61
2022/01/06 05:21:49;0.00;0.00;0.62;0.00;0.00;0.62;1.50;0.90;;;19.90;26.50;;;;;;2241082;62;20484;-63
2022/01/06 05:24:37;0.00;0.00;0.62;0.00;0.00;0.62;2.07;1.13;;;19.90;26.50;;;;;;2242065;62;20633;-61
2022/01/06 05:27:22;0.00;0.00;0.62;0.00;0.00;0.62;2.17;1.13;;;19.90;26.50;;;;;;2242459;62;20466;-64
2022/01/06 05:30:08;0.00;0.00;0.62;0.00;0.00;0.62;2.23;0.80;;;19.80;26.50;;;;;;2241874;61;20746;-62
2022/01/06 05:32:53;0.00;0.00;0.62;0.00;0.00;0.62;2.80;1.10;;;19.80;26.50;;;;;;2242412;62;20377;-61
2022/01/06 05:35:37;0.00;0.00;0.62;0.00;0.00;0.62;1.70;1.00;;;19.80;26.50;;;;;;2241015;62;20390;-62
2022/01/06 05:38:22;0.00;0.00;0.62;0.00;0.00;0.62;1.87;0.90;;;19.80;26.50;;;;;;2241992;62;20623;-63
2022/01/06 05:41:07;0.00;0.00;0.62;0.00;0.00;0.62;2.50;1.37;;;19.80;26.50;;;;;;2242419;61;20614;-63
2022/01/06 05:43:52;0.00;0.00;0.62;0.00;0.00;0.62;2.43;1.53;;;19.80;26.50;;;;;;2241564;62;20450;-63
2022/01/06 05:46:37;0.00;0.00;0.62;0.00;0.00;0.62;2.10;1.13;;;19.80;26.60;;;;;;2241859;62;20427;-62
2022/01/06 05:49:21;0.00;0.00;0.62;0.00;0.00;0.62;1.47;0.80;;;19.80;26.60;;;;;;2242371;62;20386;-62
2022/01/06 05:52:06;0.00;0.00;0.62;0.00;0.00;0.62;1.80;0.87;;;19.70;26.50;;;;;;2241552;62;20362;-62
2022/01/06 05:54:51;0.00;0.00;0.62;0.00;0.00;0.62;2.67;0.93;;;19.70;26.50;;;;;;2241979;62;20801;-62
2022/01/06 05:57:37;0.00;0.00;0.62;0.00;0.00;0.62;2.83;1.63;;;19.80;26.60;;;;;;2241799;62;20361;-63
2022/01/06 06:00:22;0.00;0.00;0.62;0.00;0.00;0.62;1.40;0.90;;;19.70;26.50;;;;;;2241856;61;20389;-61
2022/01/06 06:03:06;0.00;0.00;0.62;0.00;0.00;0.62;1.93;0.97;;;19.70;26.50;;;;;;2242426;62;20382;-62
2022/01/06 06:05:51;0.00;0.00;0.62;0.00;0.00;0.62;1.97;0.97;;;19.70;26.40;;;;;;2241441;62;20390;-62
2022/01/06 06:08:35;0.00;0.00;0.62;0.00;0.00;0.62;1.67;0.80;;;19.70;26.40;;;;;;2242144;62;20383;-62
2022/01/06 06:11:20;0.00;0.00;0.62;0.00;0.00;0.62;2.53;0.97;;;19.70;26.40;;;;;;2242361;61;20495;-62
2022/01/06 06:14:06;0.00;0.00;0.62;0.00;0.00;0.62;2.23;1.10;;;19.70;26.40;;;;;;2241655;62;20370;-62
2022/01/06 06:16:50;0.00;0.00;0.62;0.00;0.00;0.62;1.57;0.80;;;19.70;26.40;;;;;;2242371;62;20366;-62
2022/01/06 06:19:35;0.00;0.00;0.62;0.00;0.00;0.62;2.83;1.10;;;19.70;26.50;;;;;;2241531;61;20418;-62
2022/01/06 06:22:20;0.00;0.00;0.62;0.00;0.00;0.62;1.80;0.80;;;19.70;26.50;;;;;;2241836;62;20394;-61
2022/01/06 06:25:05;0.00;0.00;0.62;0.00;0.00;0.62;1.67;0.83;;;19.70;26.50;;;;;;2242254;62;20370;-62
2022/01/06 06:27:50;0.00;0.00;0.62;0.00;0.00;0.62;1.73;0.80;;;19.70;26.60;;;;;;2241259;62;20362;-62
2022/01/06 06:30:36;0.00;0.00;0.62;0.00;0.00;0.62;1.57;0.77;;;19.60;26.50;;;;;;2242037;61;20612;-62
2022/01/06 06:33:21;0.00;0.00;0.62;0.00;0.00;0.62;1.50;0.80;;;19.70;26.60;;;;;;2242193;62;20382;-62
2022/01/06 06:36:06;0.00;0.00;0.62;0.00;0.00;0.62;1.80;1.00;;;19.70;26.60;;;;;;2241256;62;20391;-62
2022/01/06 06:38:50;0.00;0.00;0.62;0.00;0.00;0.62;2.27;1.10;;;19.60;26.60;;;;;;2242106;62;20390;-62
2022/01/06 06:41:35;0.00;0.00;0.62;0.00;0.00;0.62;1.93;0.70;;;19.70;26.70;;;;;;2241850;62;20465;-62
2022/01/06 06:44:19;0.00;0.00;0.62;0.00;0.00;0.62;1.47;0.90;;;19.60;26.60;;;;;;2241774;62;20382;-62
2022/01/06 06:47:05;0.00;0.00;0.62;0.00;0.00;0.62;1.30;0.60;;;19.70;26.70;;;;;;2242241;62;20860;-61
2022/01/06 06:49:50;0.00;0.00;0.62;0.00;0.00;0.62;1.87;0.80;;;19.70;27.30;;;;;;2241322;61;20801;-62
2022/01/06 06:52:35;0.00;0.00;0.62;0.00;0.00;0.62;1.50;0.70;;;19.70;26.70;;;;;;2241985;62;20653;-62
2022/01/06 06:55:20;0.00;0.00;0.62;0.00;0.00;0.62;1.67;0.80;;;19.70;26.70;;;;;;2242163;62;20365;-62
2022/01/06 06:58:04;0.00;0.00;0.62;0.00;0.00;0.62;1.90;0.80;;;19.70;26.70;;;;;;2241349;62;20387;-61
2022/01/06 07:00:49;0.00;0.00;0.62;0.00;0.00;0.62;1.40;0.80;;;19.70;26.80;;;;;;2241903;61;20394;-61
2022/01/06 07:03:35;0.00;0.00;0.62;0.00;0.00;0.62;1.83;0.97;;;19.70;26.80;;;;;;2241998;62;20414;-62
2022/01/06 07:06:19;0.00;0.00;0.62;0.00;0.00;0.62;1.90;0.80;;;19.70;26.80;;;;;;2241687;62;20366;-62
2022/01/06 07:09:04;0.00;0.00;0.62;0.00;0.00;0.62;2.33;1.03;;;19.70;26.80;;;;;;2241950;62;20402;-63
2022/01/06 07:11:48;0.00;0.00;0.62;0.00;0.00;0.62;1.93;0.97;;;19.70;26.80;;;;;;2241598;62;20378;-62
2022/01/06 07:14:33;0.00;0.00;0.62;0.00;0.00;0.62;1.40;0.67;;;19.70;26.80;;;;;;2241624;62;20367;-61
2022/01/06 07:17:17;0.00;0.00;0.62;0.00;0.00;0.62;1.40;0.60;;;19.70;26.80;;;;;;2241997;62;20362;-61
2022/01/06 07:20:06;0.00;0.00;0.62;0.00;0.00;0.62;1.70;0.80;;;19.70;26.80;;;;;;2240991;61;20774;-63
2022/01/06 07:22:50;0.00;0.00;0.62;0.00;0.00;0.62;2.37;0.70;;;19.70;26.80;;;;;;2241959;62;20365;-61
2022/01/06 07:25:35;0.00;0.00;0.62;0.00;0.00;0.62;1.67;0.77;;;19.70;26.80;;;;;;2242242;62;20426;-62
2022/01/06 07:28:19;0.00;0.00;0.62;0.00;0.00;0.62;1.70;0.90;;;19.70;26.80;;;;;;2240913;62;20402;-61
2022/01/06 07:31:04;0.00;0.00;0.62;0.00;0.00;0.62;1.30;0.70;;;19.70;26.80;;;;;;2242033;61;20596;-62
2022/01/06 07:33:49;0.00;0.00;0.62;0.00;0.00;0.62;1.40;0.77;;;19.70;26.80;;;;;;2241706;62;20359;-62
2022/01/06 07:36:35;0.00;0.00;0.62;0.00;0.00;0.62;1.83;0.90;;;19.70;26.80;;;;;;2241606;62;20455;-61
2022/01/06 07:39:20;0.00;0.00;0.62;0.00;0.00;0.62;1.40;0.90;;;19.70;26.90;;;;;;2241943;62;20839;-61
2022/01/06 07:42:06;0.00;0.00;0.62;0.00;0.00;0.62;1.70;0.80;;;19.70;26.80;;;;;;2241113;62;20492;-61
2022/01/06 07:44:50;0.00;0.00;0.62;0.00;0.00;0.62;1.80;0.80;;;19.70;26.80;;;;;;2241845;62;20362;-63
2022/01/06 07:47:42;0.00;0.00;0.62;0.00;0.00;0.62;1.97;0.80;;;19.70;26.90;;;;;;2242142;61;20370;-61
2022/01/06 07:50:30;0.00;0.00;0.62;0.00;0.00;0.62;1.70;0.77;;;19.80;26.90;;;;;;2241395;61;20662;-62
2022/01/06 07:53:15;0.00;0.00;0.62;0.00;0.00;0.62;1.63;1.07;;;19.70;26.90;;;;;;2242067;62;20386;-62
2022/01/06 07:56:00;0.00;0.00;0.62;0.00;0.00;0.62;1.40;0.67;;;19.70;26.90;;;;;;2241448;62;20358;-63
2022/01/06 07:58:45;0.00;0.00;0.62;0.00;0.00;0.62;1.40;0.87;;;19.70;26.90;;;;;;2241423;62;20379;-62
2022/01/06 08:01:29;0.00;0.00;0.62;0.00;0.00;0.62;1.40;0.70;;;19.80;26.90;;;;;;2242134;62;20409;-62
2022/01/06 08:04:14;0.00;0.00;0.62;0.00;0.00;0.62;1.40;0.70;;;19.70;26.90;;;;;;2241065;62;20370;-62
2022/01/06 08:06:58;0.00;0.00;0.62;0.00;0.00;0.62;2.90;1.00;;;19.80;27.00;;;;;;2241864;62;20379;-60
2022/01/06 08:09:45;0.00;0.00;0.62;0.00;0.00;0.62;1.50;0.80;;;19.80;27.00;;;;;;2241926;61;20653;-61
2022/01/06 08:12:30;0.00;0.00;0.62;0.00;0.00;0.62;1.20;0.60;;;19.80;27.00;;;;;;2241276;62;20483;-62
2022/01/06 08:15:14;0.00;0.00;0.62;0.00;0.00;0.62;1.60;0.70;;;19.80;27.00;;;;;;2242019;62;20398;-62
2022/01/06 08:17:58;0.00;0.00;0.62;0.00;0.00;0.62;1.77;0.70;;;19.80;27.00;;;;;;2241196;62;20571;-60
2022/01/06 08:20:43;0.00;0.00;0.62;0.00;0.00;0.62;1.20;0.60;;;19.80;27.00;;;;;;2241396;61;20407;-61
2022/01/06 08:23:28;0.00;0.00;0.62;0.00;0.00;0.62;1.53;0.77;;;19.80;27.00;;;;;;2242092;62;20799;-63
2022/01/06 08:26:13;0.00;0.00;0.62;0.00;0.00;0.62;1.60;0.70;;;19.80;27.00;;;;;;2240962;62;20394;-60
2022/01/06 08:28:58;0.00;0.00;0.62;0.00;0.00;0.62;1.37;0.70;;;19.80;27.00;;;;;;2241758;62;20499;-62
2022/01/06 08:31:42;0.00;0.00;0.62;0.00;0.00;0.62;1.30;0.70;;;19.80;27.00;;;;;;2241797;62;20506;-62
2022/01/06 08:34:27;0.00;0.00;0.62;0.00;0.00;0.62;1.30;0.70;;;19.80;27.00;;;;;;2241128;62;20362;-62
2022/01/06 08:37:12;0.00;0.00;0.62;0.00;0.00;0.62;1.30;0.60;;;19.80;27.00;;;;;;2241767;62;20366;-62
2022/01/06 08:39:56;0.00;0.00;0.62;0.00;0.00;0.62;1.30;0.60;;;19.80;27.00;;;;;;2241288;61;20414;-62
2022/01/06 08:42:43;0.00;0.00;0.62;0.00;0.00;0.62;1.40;0.70;;;19.80;27.00;;;;;;2241454;62;20711;-62
2022/01/06 08:45:27;0.00;0.00;0.62;0.00;0.00;0.62;1.40;0.60;;;19.80;27.00;;;;;;2241904;62;20362;-62
2022/01/06 08:48:12;0.00;0.00;0.62;0.00;0.00;0.62;1.40;0.70;;;19.80;27.00;;;;;;2241103;62;20410;-62
2022/01/06 08:50:57;0.00;0.00;0.62;0.00;0.00;0.62;1.47;0.70;;;19.90;27.10;;;;;;2241660;62;20445;-62
2022/01/06 08:53:42;0.00;0.00;0.62;0.00;0.00;0.62;1.20;0.60;;;19.90;27.20;;;;;;2241976;62;20438;-62
2022/01/06 08:56:26;0.00;0.00;0.62;0.00;0.00;0.62;1.20;0.60;;;19.90;27.10;;;;;;2240973;62;20361;-62
2022/01/06 08:59:12;0.00;0.00;0.62;0.00;0.00;0.62;1.90;0.80;;;19.90;27.20;;;;;;2241644;62;20369;-62
2022/01/06 09:01:56;0.00;0.00;0.62;0.00;0.00;0.62;1.43;0.70;;;19.90;27.20;;;;;;2242264;62;20507;-62
2022/01/06 09:04:41;0.00;0.00;0.62;0.00;0.00;0.62;2.00;0.87;;;19.90;27.20;;;;;;2242031;62;20411;-62
2022/01/06 09:07:25;0.00;0.00;0.62;0.00;0.00;0.62;1.30;0.70;;;19.90;27.20;;;;;;2242568;62;20362;-62
2022/01/06 09:10:10;0.00;0.00;0.62;0.00;0.00;0.62;1.70;0.80;;;19.90;27.20;;;;;;2241832;61;20422;-62
2022/01/06 09:12:55;0.00;0.00;0.62;0.00;0.00;0.62;1.20;0.60;;;20.00;27.20;;;;;;2242312;62;20439;-62
2022/01/06 09:15:41;0.00;0.00;0.62;0.00;0.00;0.62;2.17;0.80;;;20.00;27.20;;;;;;2242487;62;20514;-62
2022/01/06 09:18:26;0.00;0.00;0.62;0.00;0.00;0.62;1.47;0.70;;;20.00;27.20;;;;;;2241424;62;20363;-62
2022/01/06 09:21:10;0.00;0.00;0.62;0.00;0.00;0.62;1.60;0.90;;;20.00;27.20;;;;;;2242319;61;20434;-62
2022/01/06 09:23:57;0.00;0.00;0.62;0.00;0.00;0.62;1.50;0.80;;;20.00;27.10;;;;;;2242522;62;20406;-62
2022/01/06 09:26:41;0.00;0.00;0.62;0.00;0.00;0.62;1.23;0.70;;;20.10;27.20;;;;;;2241821;62;20369;-62
2022/01/06 09:29:29;0.00;0.00;0.62;0.00;0.00;0.62;1.30;0.70;;;20.00;27.10;;;;;;2242502;62;20444;-62
2022/01/06 09:32:16;0.00;0.00;0.62;0.00;0.00;0.62;1.30;0.70;;;20.00;27.10;;;;;;2241922;61;20410;-62
2022/01/06 09:35:04;0.00;0.00;0.62;0.00;0.00;0.62;1.87;0.70;;;20.00;27.20;;;;;;2242128;62;20366;-62
2022/01/06 09:37:49;0.00;0.00;0.62;0.00;0.00;0.62;1.10;0.60;;;20.10;27.20;;;;;;2242048;62;20370;-60
2022/01/06 09:40:34;0.00;0.00;0.62;0.00;0.00;0.62;1.30;0.60;;;20.10;27.20;;;;;;2241613;61;20417;-62
2022/01/06 09:43:24;0.00;0.00;0.62;0.00;0.00;0.62;1.20;0.60;;;20.10;27.20;;;;;;2242241;62;20357;-62
2022/01/06 09:46:10;0.00;0.00;0.62;0.00;0.00;0.62;1.60;0.70;;;20.10;27.20;;;;;;2242497;62;20398;-62
2022/01/06 09:48:59;0.00;0.00;0.62;0.00;0.00;0.62;1.20;0.70;;;20.10;27.30;;;;;;2241738;62;20366;-62
2022/01/06 09:51:46;0.00;0.00;0.62;0.00;0.00;0.62;1.30;0.70;;;20.10;27.30;;;;;;2242495;62;20753;-62
2022/01/06 09:54:31;0.00;0.00;0.62;0.00;0.00;0.62;1.40;0.87;;;20.20;27.40;;;;;;2242165;62;20417;-62
2022/01/06 09:57:16;0.00;0.00;0.62;0.00;0.00;0.62;1.20;0.60;;;20.20;27.40;;;;;;2241763;62;20438;-62
2022/01/06 10:00:04;0.00;0.00;0.62;0.00;0.00;0.62;1.30;0.70;;;20.20;27.40;;;;;;2242254;61;20406;-62
2022/01/06 10:02:59;0.00;0.00;0.62;0.00;0.00;0.62;1.60;0.70;;;20.20;27.40;;;;;;2241557;62;20390;-63
2022/01/06 10:05:51;0.00;0.00;0.62;0.00;0.00;0.62;1.30;0.63;;;20.30;27.50;;;;;;2242296;62;20363;-62
2022/01/06 10:08:36;0.00;0.00;0.62;0.00;0.00;0.62;1.40;0.60;;;20.30;27.50;;;;;;2241758;62;20819;-62
2022/01/06 10:11:26;0.00;0.00;0.62;0.00;0.00;0.62;1.50;0.67;;;20.30;27.40;;;;;;2241061;61;20786;-61
2022/01/06 10:14:19;0.00;0.00;0.62;0.00;0.00;0.62;1.57;0.70;;;20.30;27.50;;;;;;2242417;62;20390;-62
2022/01/06 10:17:05;0.00;0.00;0.62;0.00;0.00;0.62;1.53;0.73;;;20.40;27.50;;;;;;2241117;62;20374;-61
2022/01/06 10:19:51;0.00;0.00;0.62;0.00;0.00;0.62;1.43;0.70;;;20.40;27.50;;;;;;2242062;61;20417;-62
2022/01/06 10:22:49;0.00;0.00;0.62;0.00;0.00;0.62;1.23;0.67;;;20.40;27.50;;;;;;2242042;62;20366;-62
2022/01/06 10:25:48;0.00;0.00;0.62;0.00;0.00;0.62;1.30;0.63;;;20.40;27.50;;;;;;2241481;62;20480;-62
2022/01/06 10:28:35;0.00;0.00;0.62;0.00;0.00;0.62;1.57;0.83;;;20.50;27.60;;;;;;2242220;62;20362;-61
2022/01/06 10:31:26;0.00;0.00;0.62;0.00;0.00;0.62;1.53;0.80;;;20.50;27.60;;;;;;2241248;61;20438;-61
2022/01/06 10:34:11;0.00;0.00;0.62;0.00;0.00;0.62;1.20;0.70;;;20.50;27.60;;;;;;2241521;62;20358;-61
2022/01/06 10:36:56;0.00;0.00;0.62;0.00;0.00;0.62;1.20;0.63;;;20.60;27.70;;;;;;2242471;62;20593;-61
2022/01/06 10:39:45;0.00;0.00;0.62;0.00;0.00;0.62;1.40;0.70;;;20.60;27.70;;;;;;2241249;61;20386;-61
2022/01/06 10:42:34;0.00;0.00;0.62;0.00;0.00;0.62;1.40;0.70;;;20.60;27.70;;;;;;2241754;62;20383;-62
2022/01/06 10:45:24;0.00;0.00;0.62;0.00;0.00;0.62;1.33;0.67;;;20.60;27.70;;;;;;2242462;62;20370;-62
2022/01/06 10:48:09;0.00;0.00;0.62;0.00;0.00;0.62;1.30;0.70;;;20.70;27.80;;;;;;2241634;62;20619;-61
2022/01/06 10:50:57;0.00;0.00;0.62;0.00;0.00;0.62;1.50;0.70;;;20.70;27.80;;;;;;2242369;61;20371;-61
2022/01/06 10:53:49;0.00;0.00;0.62;0.00;0.00;0.62;1.63;0.70;;;20.70;27.80;;;;;;2241327;62;20406;-61
2022/01/06 10:56:36;0.00;0.00;0.62;0.00;0.00;0.62;1.30;0.80;;;20.80;27.90;;;;;;2242096;62;20363;-61
2022/01/06 10:59:27;0.00;0.00;0.62;0.00;0.00;0.62;1.63;0.90;;;20.80;27.90;;;;;;2241806;62;20366;-61
2022/01/06 11:02:25;0.00;0.00;0.62;0.00;0.00;0.62;1.60;0.60;;;20.80;27.90;;;;;;2241070;62;20425;-61